Time;durP1;ratioP1;P1;durP2;ratioP2;P2;SDS_P1;SDS_P2;PMS_P1;PMS_P2;Temp;Humidity;BMP_temperature;BMP_pressure;BME280_temperature;BME280_humidity;BME280_pressure;Samples;Min_cycle;Max_cycle;Signal;HPM_P1;HPM_P2
2022/07/16 00:02:31;;;;;;;6.13;2.57;;;15.60;76.40;;;;;;5001145;28;20045;-68
2022/07/16 00:04:57;;;;;;;4.90;2.83;;;15.70;76.50;;;;;;4991766;28;20304;-68
2022/07/16 00:07:22;;;;;;;5.40;2.93;;;15.70;76.50;;;;;;5005766;28;20056;-68
2022/07/16 00:09:48;;;;;;;4.00;2.50;;;15.80;76.60;;;;;;5007906;28;20566;-68
2022/07/16 00:12:14;;;;;;;7.50;2.60;;;15.80;76.50;;;;;;5019448;28;20064;-68
2022/07/16 00:14:40;;;;;;;4.80;2.20;;;15.90;76.60;;;;;;5006836;28;20503;-68
2022/07/16 00:17:06;;;;;;;5.70;2.50;;;15.90;76.60;;;;;;4990532;28;20493;-68
2022/07/16 00:19:31;;;;;;;6.30;3.20;;;15.90;76.60;;;;;;5007280;28;20049;-68
2022/07/16 00:21:58;;;;;;;5.20;2.93;;;16.00;77.00;;;;;;5007033;28;20038;-68
2022/07/16 00:24:26;;;;;;;7.60;2.90;;;16.00;77.50;;;;;;5007168;28;20050;-68
2022/07/16 00:26:53;;;;;;;5.93;2.93;;;16.10;77.60;;;;;;5007486;28;20293;-68
2022/07/16 00:29:19;;;;;;;6.97;3.30;;;16.10;77.90;;;;;;5006805;28;20292;-68
2022/07/16 00:31:49;;;;;;;5.37;2.50;;;16.20;77.90;;;;;;4987183;28;20290;-68
2022/07/16 00:34:16;;;;;;;5.27;2.43;;;16.20;78.60;;;;;;5001562;28;20773;-68
2022/07/16 00:36:42;;;;;;;5.53;2.77;;;16.30;78.60;;;;;;5006251;28;20796;-68
2022/07/16 00:39:08;;;;;;;4.70;1.60;;;16.40;78.60;;;;;;5006794;28;20328;-68
2022/07/16 00:41:36;;;;;;;2.50;1.20;;;16.40;78.20;;;;;;5006895;28;20426;-68
2022/07/16 00:44:07;;;;;;;3.60;0.80;;;16.30;77.70;;;;;;5006955;28;20281;-68
2022/07/16 00:46:34;;;;;;;4.73;0.80;;;16.20;77.70;;;;;;5006959;28;20292;-68
2022/07/16 00:49:00;;;;;;;3.97;0.90;;;16.10;78.10;;;;;;4991134;28;20299;-68
2022/07/16 00:51:28;;;;;;;2.27;0.80;;;16.00;78.60;;;;;;5007107;28;20284;-68
2022/07/16 00:53:54;;;;;;;4.00;1.10;;;15.80;78.80;;;;;;5006568;28;20046;-68
2022/07/16 00:56:21;;;;;;;4.93;1.60;;;15.70;79.20;;;;;;5002456;28;20658;-68
2022/07/16 00:58:47;;;;;;;4.97;1.07;;;15.60;79.70;;;;;;5005801;28;20704;-68
2022/07/16 01:01:15;;;;;;;4.97;0.93;;;15.60;80.70;;;;;;5006132;28;20285;-68
2022/07/16 01:03:42;;;;;;;4.27;1.10;;;15.50;80.90;;;;;;5005450;28;20343;-68
2022/07/16 01:06:09;;;;;;;4.10;0.90;;;15.40;80.90;;;;;;5006816;28;20774;-68
2022/07/16 01:08:37;;;;;;;5.43;1.10;;;15.40;81.30;;;;;;4989684;28;20304;-68
2022/07/16 01:11:05;;;;;;;3.07;1.20;;;15.40;81.50;;;;;;5001807;28;20281;-68
2022/07/16 01:13:32;;;;;;;6.40;1.43;;;15.40;82.00;;;;;;5012879;28;20379;-68
2022/07/16 01:15:58;;;;;;;6.97;1.50;;;15.40;81.90;;;;;;5006616;28;20289;-68
2022/07/16 01:18:24;;;;;;;3.10;0.90;;;15.40;81.70;;;;;;5005309;28;20347;-68
2022/07/16 01:20:50;;;;;;;3.83;1.40;;;15.50;81.90;;;;;;4986186;28;20497;-68
2022/07/16 01:23:22;;;;;;;7.97;1.10;;;15.50;81.70;;;;;;4987990;28;20034;-68
2022/07/16 01:25:49;;;;;;;2.67;0.70;;;15.50;81.90;;;;;;4989558;28;20038;-68
2022/07/16 01:28:15;;;;;;;4.23;0.80;;;15.60;82.00;;;;;;5003256;28;20293;-68
2022/07/16 01:30:41;;;;;;;3.47;0.70;;;15.60;81.60;;;;;;5003428;28;20299;-68
2022/07/16 01:33:24;;;;;;;3.90;0.70;;;15.60;81.30;;;;;;5001471;28;20304;-68
2022/07/16 01:35:52;;;;;;;4.87;0.90;;;15.60;81.40;;;;;;5017205;28;20308;-68
2022/07/16 01:38:18;;;;;;;2.87;0.60;;;15.60;81.20;;;;;;5004861;28;20347;-68
2022/07/16 01:40:44;;;;;;;2.67;0.70;;;15.60;80.90;;;;;;5000080;28;20712;-68
2022/07/16 01:43:18;;;;;;;2.10;0.60;;;15.60;80.80;;;;;;5004791;28;20044;-68
2022/07/16 01:45:44;;;;;;;6.45;0.70;;;15.60;80.90;;;;;;4985210;28;20077;-68
2022/07/16 01:48:12;;;;;;;3.03;0.77;;;15.60;80.90;;;;;;5005581;28;20046;-68
2022/07/16 01:50:40;;;;;;;2.17;0.70;;;15.60;80.70;;;;;;5005927;28;20350;-68
2022/07/16 01:53:06;;;;;;;3.40;1.00;;;15.60;80.90;;;;;;4988946;28;20847;-68
2022/07/16 01:55:33;;;;;;;1.67;0.80;;;15.50;80.60;;;;;;5005950;28;20305;-68
2022/07/16 01:57:59;;;;;;;4.57;0.80;;;15.60;80.30;;;;;;5005512;28;20033;-67
2022/07/16 02:00:25;;;;;;;2.93;0.87;;;15.60;80.20;;;;;;5017519;28;20293;-67
2022/07/16 02:02:51;;;;;;;3.87;0.70;;;15.50;80.00;;;;;;5004429;28;20315;-68
2022/07/16 02:05:16;;;;;;;4.47;0.90;;;15.50;79.90;;;;;;5005763;28;20054;-68
2022/07/16 02:07:42;;;;;;;2.93;0.90;;;15.50;79.80;;;;;;5004880;28;20049;-68
2022/07/16 02:10:08;;;;;;;3.77;1.00;;;15.50;79.70;;;;;;4988596;28;20034;-68
2022/07/16 02:12:34;;;;;;;2.70;0.80;;;15.50;79.80;;;;;;5002243;28;20596;-68
2022/07/16 02:14:59;;;;;;;6.30;0.70;;;15.40;79.40;;;;;;4999984;28;20038;-68
2022/07/16 02:17:25;;;;;;;3.23;0.80;;;15.40;79.70;;;;;;5003563;28;20252;-68
2022/07/16 02:19:51;;;;;;;3.57;1.03;;;15.40;79.50;;;;;;5000891;28;20041;-68
2022/07/16 02:22:17;;;;;;;4.50;0.77;;;15.40;79.30;;;;;;4996390;28;20076;-68
2022/07/16 02:24:42;;;;;;;4.07;0.70;;;15.30;79.40;;;;;;4989335;28;20038;-68
2022/07/16 02:27:08;;;;;;;3.47;0.83;;;15.30;79.10;;;;;;5002304;28;20045;-68
2022/07/16 02:29:34;;;;;;;3.73;0.87;;;15.30;78.90;;;;;;4988916;28;20152;-68
2022/07/16 02:32:00;;;;;;;4.03;0.67;;;15.30;79.00;;;;;;4988236;28;20128;-68
2022/07/16 02:34:25;;;;;;;2.97;1.00;;;15.20;79.10;;;;;;4990093;28;20046;-68
2022/07/16 02:36:51;;;;;;;3.43;0.87;;;15.20;79.10;;;;;;4987999;28;20030;-68
2022/07/16 02:39:17;;;;;;;4.30;0.97;;;15.20;78.90;;;;;;4999177;28;20050;-68
2022/07/16 02:41:43;;;;;;;3.20;1.07;;;15.10;78.70;;;;;;4982105;28;20038;-68
2022/07/16 02:44:08;;;;;;;3.60;1.07;;;15.10;78.70;;;;;;5000033;28;20850;-68
2022/07/16 02:46:34;;;;;;;4.90;0.80;;;15.10;79.20;;;;;;4978859;28;20068;-68
2022/07/16 02:49:00;;;;;;;4.33;1.20;;;15.00;79.10;;;;;;5000069;28;20125;-68
2022/07/16 02:51:25;;;;;;;4.80;1.60;;;15.00;79.00;;;;;;5003610;28;20042;-68
2022/07/16 02:53:51;;;;;;;6.33;1.83;;;14.90;79.10;;;;;;5003794;28;20041;-68
2022/07/16 02:56:17;;;;;;;5.13;1.60;;;14.90;79.10;;;;;;5004425;28;20104;-68
2022/07/16 02:58:43;;;;;;;2.17;1.30;;;14.80;79.00;;;;;;5005448;28;20411;-68
2022/07/16 03:01:08;;;;;;;4.23;1.00;;;14.70;79.40;;;;;;4989102;28;20049;-68
2022/07/16 03:03:34;;;;;;;6.03;1.80;;;14.60;79.30;;;;;;4969219;28;20080;-68
2022/07/16 03:06:00;;;;;;;5.20;1.43;;;14.50;79.40;;;;;;5001830;28;20258;-68
2022/07/16 03:08:26;;;;;;;4.50;1.17;;;14.50;79.90;;;;;;4986168;28;20530;-68
2022/07/16 03:10:52;;;;;;;7.10;1.10;;;14.40;79.80;;;;;;4988762;28;20376;-68
2022/07/16 03:13:17;;;;;;;7.10;1.50;;;14.30;80.10;;;;;;4987648;28;20085;-68
2022/07/16 03:15:43;;;;;;;3.93;1.27;;;14.20;80.20;;;;;;5004280;28;20045;-68
2022/07/16 03:18:09;;;;;;;2.27;1.20;;;14.10;80.40;;;;;;5004944;28;20034;-68
2022/07/16 03:20:35;;;;;;;5.63;1.07;;;14.10;80.90;;;;;;4981199;28;20069;-68
2022/07/16 03:23:00;;;;;;;5.50;1.53;;;14.10;80.60;;;;;;4996545;28;20046;-67
2022/07/16 03:25:26;;;;;;;3.73;1.70;;;14.10;80.40;;;;;;4987174;28;20078;-67
2022/07/16 03:27:52;;;;;;;3.30;1.20;;;14.00;80.30;;;;;;5007860;28;20101;-67
2022/07/16 03:30:18;;;;;;;5.80;1.53;;;14.00;80.80;;;;;;5007505;28;20129;-67
2022/07/16 03:32:44;;;;;;;6.13;1.33;;;13.90;80.70;;;;;;5007136;28;20081;-67
2022/07/16 03:35:11;;;;;;;5.93;1.20;;;13.90;80.60;;;;;;4991120;28;20343;-67
2022/07/16 03:38:57;;;;;;;4.30;1.20;;;13.90;80.60;;;;;;4992013;28;20072;-67
2022/07/16 03:40:24;;;;;;;3.50;1.60;;;13.80;80.80;;;;;;5019010;28;20356;-67
2022/07/16 03:42:49;;;;;;;4.93;1.20;;;13.80;80.30;;;;;;4991150;28;20285;-67
2022/07/16 03:45:15;;;;;;;4.33;0.90;;;13.80;80.70;;;;;;5008351;28;20954;-67
2022/07/16 03:47:41;;;;;;;3.07;1.10;;;13.70;80.90;;;;;;5008574;28;20569;-67
2022/07/16 03:50:07;;;;;;;5.63;1.43;;;13.70;80.80;;;;;;4985902;28;20056;-67
2022/07/16 03:52:33;;;;;;;3.17;1.00;;;13.60;80.60;;;;;;5003930;28;20045;-67
2022/07/16 03:54:58;;;;;;;7.93;1.23;;;13.60;80.50;;;;;;4984168;28;20383;-67
2022/07/16 03:57:24;;;;;;;4.77;1.17;;;13.60;80.50;;;;;;5000815;28;20041;-67
2022/07/16 03:59:50;;;;;;;5.70;1.07;;;13.60;80.70;;;;;;5008092;28;20044;-67
2022/07/16 04:02:15;;;;;;;4.87;1.50;;;13.50;80.60;;;;;;5007522;28;20381;-67
2022/07/16 04:04:41;;;;;;;5.53;1.40;;;13.50;80.40;;;;;;5022421;28;20057;-67
2022/07/16 04:07:07;;;;;;;6.67;1.50;;;13.60;79.80;;;;;;5015412;28;20048;-67
2022/07/16 04:09:33;;;;;;;8.77;1.43;;;13.60;79.60;;;;;;5023403;28;20052;-67
2022/07/16 04:11:58;;;;;;;3.33;0.70;;;13.60;79.30;;;;;;5006496;28;20288;-67
2022/07/16 04:14:25;;;;;;;5.20;0.70;;;13.60;79.00;;;;;;5007170;28;20410;-67
2022/07/16 04:16:51;;;;;;;3.37;0.60;;;13.60;78.70;;;;;;4991635;28;20088;-67
2022/07/16 04:19:17;;;;;;;4.23;1.10;;;13.50;78.70;;;;;;5008006;28;20380;-66
2022/07/16 04:21:43;;;;;;;3.17;1.27;;;13.50;78.50;;;;;;4990801;28;20372;-66
2022/07/16 04:24:09;;;;;;;3.80;0.87;;;13.60;78.20;;;;;;5007555;28;20372;-66
2022/07/16 04:26:34;;;;;;;5.40;0.90;;;13.50;78.10;;;;;;5007115;28;20050;-66
2022/07/16 04:29:00;;;;;;;6.60;0.83;;;13.50;78.10;;;;;;5007712;28;20407;-66
2022/07/16 04:31:26;;;;;;;5.57;0.90;;;13.50;77.70;;;;;;5006557;28;20730;-67
2022/07/16 04:37:33;;;;;;;3.77;0.70;;;13.60;77.00;;;;;;5007290;28;20072;-67
2022/07/16 04:39:59;;;;;;;3.63;0.70;;;13.60;76.70;;;;;;5007446;28;20892;-67
2022/07/16 04:42:24;;;;;;;4.17;0.63;;;13.70;76.30;;;;;;5006950;28;20325;-67
2022/07/16 04:44:50;;;;;;;3.27;0.80;;;13.70;76.00;;;;;;5009378;28;20050;-67
2022/07/16 04:47:16;;;;;;;4.27;0.97;;;13.90;76.30;;;;;;5004528;28;20045;-67
2022/07/16 04:49:41;;;;;;;6.37;0.80;;;14.40;76.20;;;;;;4990722;28;20053;-67
2022/07/16 04:52:07;;;;;;;7.80;1.10;;;15.10;73.60;;;;;;5006941;28;20517;-67
2022/07/16 04:54:33;;;;;;;4.73;0.60;;;15.30;72.20;;;;;;5006705;28;20395;-67
2022/07/16 04:56:59;;;;;;;5.33;0.90;;;15.60;71.80;;;;;;5006300;28;20038;-67
2022/07/16 04:59:25;;;;;;;6.30;1.03;;;16.10;71.40;;;;;;5006273;28;20045;-67
2022/07/16 05:01:51;;;;;;;3.47;0.80;;;16.90;69.60;;;;;;5006465;28;20037;-67
2022/07/16 05:04:17;;;;;;;4.60;0.87;;;17.60;67.10;;;;;;5006099;28;20293;-67
2022/07/16 05:06:42;;;;;;;4.27;0.70;;;18.30;65.00;;;;;;4990796;28;20137;-67
2022/07/16 05:09:08;;;;;;;5.73;1.00;;;18.90;63.60;;;;;;5006202;28;20133;-67
2022/07/16 05:11:34;;;;;;;6.60;0.70;;;19.50;62.20;;;;;;5006191;28;20046;-68
2022/07/16 05:13:59;;;;;;;4.97;1.00;;;19.90;60.50;;;;;;5006303;28;20434;-68
2022/07/16 05:16:25;;;;;;;4.83;0.70;;;20.20;59.30;;;;;;4990059;28;20664;-67
2022/07/16 05:18:51;;;;;;;4.13;0.63;;;20.70;58.50;;;;;;5006393;28;20494;-67
2022/07/16 05:21:17;;;;;;;5.27;0.70;;;21.00;56.90;;;;;;4984949;28;20108;-67
2022/07/16 05:23:43;;;;;;;3.67;0.67;;;21.10;55.90;;;;;;5004639;28;20293;-67
2022/07/16 05:26:09;;;;;;;4.77;0.70;;;21.20;55.90;;;;;;4998394;28;20355;-67
2022/07/16 05:28:35;;;;;;;5.20;0.50;;;21.40;55.40;;;;;;4990169;28;20387;-67
2022/07/16 05:31:01;;;;;;;5.00;0.50;;;21.70;54.80;;;;;;5004071;28;20304;-67
2022/07/16 05:33:27;;;;;;;4.73;0.50;;;22.00;54.50;;;;;;4998264;28;20883;-67
2022/07/16 05:35:53;;;;;;;5.90;0.93;;;22.40;53.20;;;;;;5001983;28;20305;-67
2022/07/16 05:38:18;;;;;;;3.77;0.50;;;22.50;52.30;;;;;;4985094;28;20103;-67
2022/07/16 05:40:44;;;;;;;4.20;0.90;;;22.40;52.10;;;;;;5000536;28;20132;-67
2022/07/16 05:43:10;;;;;;;3.83;0.93;;;22.50;51.90;;;;;;5003901;28;20453;-67
2022/07/16 05:45:37;;;;;;;4.63;0.50;;;22.60;51.10;;;;;;5006143;28;20308;-68
2022/07/16 05:48:03;;;;;;;2.43;0.40;;;22.50;50.90;;;;;;5003618;28;20693;-67
2022/07/16 05:50:29;;;;;;;3.87;0.43;;;22.40;50.90;;;;;;5004547;28;20288;-67
2022/07/16 05:52:55;;;;;;;5.57;0.80;;;22.40;50.70;;;;;;5005657;28;20347;-67
2022/07/16 05:55:20;;;;;;;4.13;0.60;;;22.20;51.10;;;;;;5006267;28;20309;-67
2022/07/16 05:57:46;;;;;;;3.77;0.60;;;22.20;50.60;;;;;;5004047;28;20064;-67
2022/07/16 06:00:12;;;;;;;3.77;0.93;;;22.00;51.40;;;;;;4989371;28;20076;-67
2022/07/16 06:02:40;;;;;;;3.23;0.50;;;22.10;51.60;;;;;;4988498;28;20344;-67
2022/07/16 06:05:06;;;;;;;3.53;0.57;;;22.50;50.30;;;;;;5006091;28;20300;-67
2022/07/16 06:07:32;;;;;;;5.53;0.50;;;22.70;50.10;;;;;;4972807;28;20141;-67
2022/07/16 06:09:58;;;;;;;2.87;0.40;;;22.30;50.40;;;;;;5006222;28;20124;-67
2022/07/16 06:12:24;;;;;;;3.13;0.60;;;21.30;51.00;;;;;;5004857;28;20508;-68
2022/07/16 06:14:49;;;;;;;1.77;0.33;;;20.60;52.40;;;;;;4985752;28;20038;-67
2022/07/16 06:17:15;;;;;;;4.20;0.80;;;19.80;53.00;;;;;;4981768;28;20108;-67
2022/07/16 06:19:42;;;;;;;4.23;0.47;;;19.10;54.60;;;;;;5005352;28;20037;-67
2022/07/16 06:22:08;;;;;;;3.17;0.50;;;18.60;56.20;;;;;;5000519;28;20064;-67
2022/07/16 06:24:34;;;;;;;4.93;0.80;;;18.20;57.50;;;;;;5005455;28;20831;-67
2022/07/16 06:26:59;;;;;;;4.20;0.40;;;17.90;58.50;;;;;;5005240;28;20324;-67
2022/07/16 06:29:25;;;;;;;3.53;0.70;;;17.60;59.00;;;;;;4989868;28;20402;-68
2022/07/16 06:31:51;;;;;;;3.90;0.67;;;17.40;59.60;;;;;;5005235;28;20100;-68
2022/07/16 06:34:16;;;;;;;5.43;0.60;;;17.30;60.00;;;;;;5001648;28;20049;-68
2022/07/16 06:36:42;;;;;;;2.90;0.53;;;17.20;60.30;;;;;;5005604;28;20045;-68
2022/07/16 06:39:08;;;;;;;3.00;0.37;;;17.10;60.10;;;;;;5005394;28;20037;-67
2022/07/16 06:41:36;;;;;;;2.87;0.50;;;17.10;60.00;;;;;;5004613;28;20315;-67
2022/07/16 06:44:07;;;;;;;4.13;0.50;;;17.00;59.20;;;;;;4982106;28;20100;-67
2022/07/16 06:46:33;;;;;;;6.57;0.70;;;16.90;59.30;;;;;;5005478;28;20740;-67
2022/07/16 06:48:59;;;;;;;4.07;0.50;;;17.00;58.90;;;;;;5005710;28;20284;-67
2022/07/16 06:51:26;;;;;;;3.27;0.40;;;17.40;58.50;;;;;;5005091;28;20045;-67
2022/07/16 06:53:52;;;;;;;4.80;0.30;;;18.30;56.70;;;;;;5002274;28;20658;-67
2022/07/16 06:56:18;;;;;;;4.10;0.40;;;18.90;54.60;;;;;;5005364;28;20777;-67
2022/07/16 06:58:44;;;;;;;3.63;0.60;;;19.40;52.90;;;;;;5005301;28;20295;-67
2022/07/16 07:01:10;;;;;;;2.00;0.20;;;19.50;52.30;;;;;;5004417;28;20038;-67
2022/07/16 07:03:39;;;;;;;3.10;0.60;;;19.20;52.70;;;;;;5004626;28;20050;-67
2022/07/16 07:06:06;;;;;;;2.80;0.20;;;19.20;52.90;;;;;;5005544;28;20688;-67
2022/07/16 07:08:32;;;;;;;3.33;0.40;;;19.10;51.40;;;;;;5003641;28;20327;-67
2022/07/16 07:10:59;;;;;;;2.50;0.53;;;18.80;50.70;;;;;;4994978;28;20284;-67
2022/07/16 07:13:30;;;;;;;4.57;0.40;;;18.40;51.50;;;;;;5000377;28;20060;-67
2022/07/16 07:15:57;;;;;;;3.27;0.50;;;18.10;51.50;;;;;;5004319;28;20309;-65
2022/07/16 07:18:23;;;;;;;2.53;0.47;;;17.90;52.60;;;;;;5005221;28;20284;-67
2022/07/16 07:20:49;;;;;;;4.63;0.87;;;18.00;52.80;;;;;;4988666;28;20291;-67
2022/07/16 07:23:14;;;;;;;1.37;0.20;;;18.20;51.60;;;;;;4987448;28;20062;-67
2022/07/16 07:25:40;;;;;;;2.53;0.47;;;18.20;50.80;;;;;;5001261;28;20379;-67
2022/07/16 07:28:06;;;;;;;2.50;0.30;;;18.10;50.80;;;;;;4988216;28;20069;-67
2022/07/16 07:30:31;;;;;;;4.40;0.20;;;18.00;51.10;;;;;;5001722;28;20045;-68
2022/07/16 07:33:00;;;;;;;2.67;0.40;;;17.90;51.20;;;;;;4984602;28;20054;-68
2022/07/16 07:35:26;;;;;;;2.60;0.30;;;17.90;51.60;;;;;;5002392;28;20052;-68
2022/07/16 07:37:52;;;;;;;5.13;0.53;;;17.90;51.70;;;;;;5003543;28;20690;-68
2022/07/16 07:40:18;;;;;;;1.63;0.37;;;18.00;51.00;;;;;;4982976;28;20359;-68
2022/07/16 07:42:44;;;;;;;1.87;0.30;;;18.20;50.70;;;;;;4989128;28;20783;-68
2022/07/16 07:45:10;;;;;;;4.50;0.30;;;18.40;50.90;;;;;;4981599;28;20044;-68
2022/07/16 07:47:37;;;;;;;3.43;0.30;;;18.50;50.10;;;;;;4995430;28;20105;-68
2022/07/16 07:50:04;;;;;;;3.57;0.27;;;18.50;50.70;;;;;;4962477;28;20662;-68
2022/07/16 07:52:30;;;;;;;3.60;0.20;;;18.40;50.60;;;;;;4998579;28;20285;-68
2022/07/16 07:54:56;;;;;;;3.87;0.40;;;18.30;50.10;;;;;;4997669;28;20332;-68
2022/07/16 07:57:22;;;;;;;3.67;0.30;;;18.10;51.00;;;;;;4990453;28;20070;-68
2022/07/16 07:59:47;;;;;;;4.13;0.50;;;18.00;51.30;;;;;;4994794;28;20050;-68
2022/07/16 08:02:13;;;;;;;5.07;0.60;;;17.90;52.30;;;;;;4989986;28;20057;-69
2022/07/16 08:04:39;;;;;;;2.90;0.30;;;17.80;53.00;;;;;;4992853;28;20056;-69
2022/07/16 08:07:05;;;;;;;3.17;0.60;;;17.90;53.10;;;;;;4993505;28;20084;-69
2022/07/16 08:09:31;;;;;;;2.57;0.20;;;18.20;52.80;;;;;;5005907;28;20141;-69
2022/07/16 08:11:57;;;;;;;2.10;0.20;;;18.40;52.60;;;;;;4992845;28;20038;-67
2022/07/16 08:14:22;;;;;;;2.43;0.30;;;18.50;52.00;;;;;;4976705;28;20332;-68
2022/07/16 08:16:48;;;;;;;4.40;0.63;;;18.50;52.00;;;;;;5001876;28;20399;-68
2022/07/16 08:19:14;;;;;;;5.03;0.40;;;18.40;51.20;;;;;;4987585;28;20044;-68
2022/07/16 08:21:39;;;;;;;2.97;0.40;;;18.30;51.20;;;;;;4996510;28;20034;-68
2022/07/16 08:26:50;;;;;;;1.60;0.37;;;18.10;52.20;;;;;;4986420;28;20115;-68
2022/07/16 08:29:15;;;;;;;3.37;0.57;;;18.30;51.90;;;;;;5006017;28;20407;-68
2022/07/16 08:31:41;;;;;;;4.33;0.30;;;18.60;51.30;;;;;;4978451;28;20038;-68
2022/07/16 08:34:07;;;;;;;3.00;0.40;;;18.90;50.70;;;;;;4995534;28;20461;-68
2022/07/16 08:36:33;;;;;;;4.60;0.63;;;19.10;50.40;;;;;;4964398;28;20701;-68
2022/07/16 08:38:59;;;;;;;3.50;0.40;;;19.00;50.80;;;;;;5001981;28;20038;-68
2022/07/16 08:41:26;;;;;;;4.07;0.50;;;19.00;51.20;;;;;;5003951;28;20134;-68
2022/07/16 08:43:52;;;;;;;2.37;0.30;;;19.20;50.20;;;;;;4991937;28;20042;-68
2022/07/16 08:46:20;;;;;;;1.97;0.40;;;19.30;49.60;;;;;;5000025;28;20293;-69
2022/07/16 08:48:48;;;;;;;4.03;0.20;;;19.50;49.00;;;;;;4996575;28;20296;-69
2022/07/16 08:51:18;;;;;;;2.60;0.50;;;19.70;48.40;;;;;;4983503;28;20278;-69
2022/07/16 08:53:45;;;;;;;2.73;0.27;;;20.00;49.30;;;;;;4993475;28;20374;-69
2022/07/16 08:56:11;;;;;;;1.43;0.30;;;20.30;48.70;;;;;;4988228;28;20828;-69
2022/07/16 08:58:37;;;;;;;2.50;0.47;;;20.30;47.70;;;;;;4994581;28;20277;-69
2022/07/16 09:01:02;;;;;;;3.53;0.30;;;20.30;48.20;;;;;;4976543;28;20119;-69
2022/07/16 09:03:28;;;;;;;5.07;0.30;;;20.40;48.00;;;;;;4988984;28;20054;-70
2022/07/16 09:05:54;;;;;;;8.67;0.93;;;20.60;48.30;;;;;;4997878;28;20414;-67
2022/07/16 09:08:20;;;;;;;2.60;0.30;;;20.70;48.60;;;;;;4988924;28;20049;-68
2022/07/16 09:10:46;;;;;;;4.40;0.57;;;21.00;48.90;;;;;;4987820;28;20072;-68
2022/07/16 09:13:12;;;;;;;3.53;0.50;;;21.10;48.70;;;;;;5003392;28;20391;-68
2022/07/16 09:15:42;;;;;;;6.20;0.60;;;21.10;49.00;;;;;;5003066;28;20406;-69
2022/07/16 09:18:25;;;;;;;2.33;0.20;;;21.10;48.20;;;;;;4984020;28;20045;-68
2022/07/16 09:21:02;;;;;;;2.77;0.30;;;20.90;48.70;;;;;;5011799;28;20042;-68
2022/07/16 09:23:34;;;;;;;5.20;0.40;;;20.60;49.50;;;;;;4997751;28;20060;-68
2022/07/16 09:26:05;;;;;;;7.57;0.50;;;20.50;50.30;;;;;;5005090;28;20092;-68
2022/07/16 09:28:46;;;;;;;6.20;0.50;;;20.50;50.40;;;;;;5004869;28;20053;-68
2022/07/16 09:31:40;;;;;;;3.77;0.40;;;20.50;50.10;;;;;;5004615;28;20081;-68
2022/07/16 09:34:12;;;;;;;5.60;0.63;;;20.70;50.30;;;;;;5002912;28;20038;-68
2022/07/16 09:36:40;;;;;;;5.33;0.47;;;20.80;50.20;;;;;;4996374;28;20219;-68
2022/07/16 09:39:07;;;;;;;5.10;0.53;;;20.90;50.50;;;;;;5004171;28;20427;-68
2022/07/16 09:41:44;;;;;;;3.20;0.40;;;21.00;50.40;;;;;;4984015;28;20601;-68
2022/07/16 09:44:40;;;;;;;5.93;0.70;;;21.30;50.50;;;;;;5000235;28;20148;-68
2022/07/16 09:47:12;;;;;;;2.80;0.40;;;21.60;49.60;;;;;;5003769;28;20298;-68
2022/07/16 09:49:40;;;;;;;3.90;0.40;;;21.50;49.60;;;;;;5005470;28;20040;-68
2022/07/16 09:52:07;;;;;;;5.00;0.40;;;21.40;50.10;;;;;;5005616;28;20045;-68
2022/07/16 09:54:37;;;;;;;4.93;0.87;;;21.20;49.80;;;;;;5004565;28;20041;-68
2022/07/16 09:57:18;;;;;;;5.10;0.53;;;21.10;50.70;;;;;;5006003;28;20549;-68
2022/07/16 09:59:46;;;;;;;3.90;1.00;;;21.10;50.50;;;;;;5005254;28;20042;-68
2022/07/16 10:02:13;;;;;;;4.53;0.40;;;21.20;50.20;;;;;;5005418;28;20041;-68
2022/07/16 10:04:39;;;;;;;4.57;0.80;;;21.40;49.60;;;;;;5005242;28;20188;-68
2022/07/16 10:07:05;;;;;;;3.97;0.60;;;21.60;49.10;;;;;;4989176;28;20494;-68
2022/07/16 10:09:32;;;;;;;2.40;0.30;;;21.60;48.90;;;;;;5004512;28;20042;-68
2022/07/16 10:12:05;;;;;;;4.53;0.40;;;21.50;48.50;;;;;;5002156;28;20042;-68
2022/07/16 10:14:36;;;;;;;4.70;0.30;;;21.50;48.50;;;;;;5006021;28;20046;-68
2022/07/16 10:17:15;;;;;;;2.67;0.33;;;21.60;48.60;;;;;;5001365;28;20567;-68
2022/07/16 10:19:43;;;;;;;2.13;0.37;;;21.80;48.10;;;;;;5004938;28;20049;-69
2022/07/16 10:22:18;;;;;;;3.57;0.30;;;21.80;47.10;;;;;;5012796;28;20053;-69
2022/07/16 10:24:50;;;;;;;3.40;0.50;;;21.60;48.30;;;;;;5005517;28;20169;-70
2022/07/16 10:27:35;;;;;;;2.17;0.30;;;21.60;48.50;;;;;;5004212;28;20049;-69
2022/07/16 10:30:10;;;;;;;2.67;0.53;;;21.70;48.20;;;;;;5004013;28;20041;-69
2022/07/16 10:33:07;;;;;;;3.28;0.60;;;21.60;47.30;;;;;;5002660;28;20069;-68
2022/07/16 10:35:41;;;;;;;2.10;0.33;;;21.60;47.20;;;;;;5002621;28;20050;-68
2022/07/16 10:38:21;;;;;;;2.58;0.30;;;21.60;46.70;;;;;;4986295;28;20034;-68
2022/07/16 10:41:13;;;;;;;4.93;0.47;;;21.50;46.50;;;;;;5005216;28;20088;-69
2022/07/16 10:43:39;;;;;;;2.87;0.60;;;21.30;46.80;;;;;;4980691;28;20042;-69
2022/07/16 10:46:07;;;;;;;2.70;0.33;;;21.30;46.90;;;;;;4995518;28;20045;-70
2022/07/16 10:48:39;;;;;;;4.80;0.33;;;21.00;46.70;;;;;;5005428;28;20048;-70
2022/07/16 10:51:26;;;;;;;5.27;0.20;;;21.00;48.00;;;;;;5005142;28;20422;-70
2022/07/16 10:54:18;;;;;;;2.77;0.30;;;21.20;46.50;;;;;;5001487;28;20041;-70
2022/07/16 10:56:49;;;;;;;3.27;0.50;;;21.30;46.60;;;;;;5003972;28;20054;-70
2022/07/16 10:59:20;;;;;;;2.90;0.40;;;21.40;46.50;;;;;;5006659;28;21373;-70
2022/07/16 11:01:49;;;;;;;2.67;0.53;;;21.50;46.80;;;;;;4992460;28;20101;-70
2022/07/16 11:04:15;;;;;;;2.83;0.40;;;21.50;46.10;;;;;;4989370;28;20064;-70
2022/07/16 11:06:49;;;;;;;3.13;0.40;;;21.30;45.50;;;;;;4973048;28;20125;-70
2022/07/16 11:09:22;;;;;;;4.27;0.43;;;21.20;46.00;;;;;;4984977;28;20046;-70
2022/07/16 11:11:48;;;;;;;3.87;0.40;;;21.40;45.70;;;;;;5000244;28;20046;-69
2022/07/16 11:14:13;;;;;;;2.70;0.33;;;21.30;45.90;;;;;;5002440;28;20519;-70
2022/07/16 11:16:50;;;;;;;2.57;0.20;;;21.50;46.40;;;;;;5001598;28;20038;-69
2022/07/16 11:19:16;;;;;;;3.00;0.40;;;21.60;44.90;;;;;;5004244;28;20045;-69
2022/07/16 11:22:00;;;;;;;3.23;0.50;;;21.50;45.00;;;;;;5004431;28;20073;-69
2022/07/16 11:24:28;;;;;;;3.37;0.60;;;21.40;45.50;;;;;;4998591;28;20037;-69
2022/07/16 11:26:58;;;;;;;3.43;0.50;;;21.60;45.00;;;;;;5004524;28;20490;-69
2022/07/16 11:29:26;;;;;;;2.57;0.43;;;21.50;45.80;;;;;;4989381;28;20045;-69
2022/07/16 11:31:52;;;;;;;2.63;0.30;;;21.30;46.10;;;;;;5004120;28;20042;-69
2022/07/16 11:34:18;;;;;;;3.60;0.70;;;21.40;46.70;;;;;;4971688;28;20050;-69
2022/07/16 11:36:50;;;;;;;2.80;0.40;;;21.60;46.30;;;;;;5003625;28;20056;-68
2022/07/16 11:39:24;;;;;;;4.10;0.50;;;21.60;46.10;;;;;;5004099;28;20042;-69
2022/07/16 11:41:53;;;;;;;2.15;0.30;;;21.70;46.30;;;;;;5006083;28;20426;-69
2022/07/16 11:44:31;;;;;;;3.73;0.57;;;22.10;45.80;;;;;;5006243;28;20069;-69
2022/07/16 11:46:59;;;;;;;6.17;0.40;;;22.40;45.20;;;;;;5004395;28;20089;-69
2022/07/16 11:49:32;;;;;;;4.17;0.50;;;22.30;44.50;;;;;;4982506;28;20053;-69
2022/07/16 11:52:03;;;;;;;3.27;0.60;;;22.00;44.60;;;;;;4984517;28;20049;-69
2022/07/16 11:54:30;;;;;;;3.80;0.57;;;21.90;45.20;;;;;;5007488;28;20122;-69
2022/07/16 11:56:56;;;;;;;4.20;0.53;;;22.00;45.60;;;;;;4979082;28;20077;-69
2022/07/16 11:59:25;;;;;;;3.33;0.60;;;21.90;46.00;;;;;;5005029;28;20049;-69
2022/07/16 12:02:18;;;;;;;2.43;0.30;;;21.50;46.20;;;;;;5006681;28;20041;-68
2022/07/16 12:04:54;;;;;;;2.67;0.53;;;21.40;46.60;;;;;;5005475;28;20061;-68
2022/07/16 12:07:26;;;;;;;2.37;0.30;;;21.60;46.00;;;;;;4987047;28;20057;-69
2022/07/16 12:09:54;;;;;;;3.33;0.70;;;21.70;45.10;;;;;;5007016;28;20050;-69
2022/07/16 12:12:34;;;;;;;3.90;0.60;;;21.50;45.50;;;;;;5006637;28;20057;-68
2022/07/16 12:15:13;;;;;;;2.27;0.30;;;21.60;45.90;;;;;;5023345;28;20073;-69
2022/07/16 12:17:44;;;;;;;5.23;0.63;;;21.80;46.10;;;;;;5007455;28;20045;-69
2022/07/16 12:20:24;;;;;;;4.00;0.40;;;21.70;45.90;;;;;;5008034;28;20038;-70
2022/07/16 12:23:02;;;;;;;2.77;0.53;;;21.40;45.90;;;;;;5007659;28;20970;-70
2022/07/16 12:25:28;;;;;;;7.20;0.83;;;21.20;46.80;;;;;;5002131;28;20061;-70
2022/07/16 12:27:55;;;;;;;3.43;0.50;;;21.20;46.20;;;;;;5000756;28;20054;-70
2022/07/16 12:30:35;;;;;;;3.13;0.27;;;21.30;46.10;;;;;;4986678;28;20154;-71
2022/07/16 12:33:22;;;;;;;2.27;0.30;;;21.30;45.40;;;;;;5002842;28;20046;-71
2022/07/16 12:35:55;;;;;;;2.80;0.40;;;21.30;45.30;;;;;;5004943;28;20103;-69
2022/07/16 12:39:00;;;;;;;7.87;1.07;;;21.30;45.60;;;;;;4988989;28;20042;-69
2022/07/16 12:41:43;;;;;;;3.07;0.60;;;21.20;45.40;;;;;;5002541;28;20513;-71
2022/07/16 12:44:12;;;;;;;2.70;0.30;;;21.30;44.90;;;;;;5007794;28;20137;-68
2022/07/16 12:46:46;;;;;;;3.87;0.60;;;21.40;44.40;;;;;;4990432;28;20367;-69
2022/07/16 12:49:14;;;;;;;2.30;0.40;;;21.50;43.90;;;;;;4991121;28;20034;-69
2022/07/16 12:51:42;;;;;;;10.23;2.13;;;21.60;43.60;;;;;;5006387;28;20433;-69
2022/07/16 12:54:10;;;;;;;2.63;0.33;;;21.80;43.40;;;;;;5007740;28;20038;-68
2022/07/16 12:59:22;;;;;;;2.13;0.60;;;21.70;43.30;;;;;;5007881;28;20385;-69
2022/07/16 13:01:49;;;;;;;4.43;0.47;;;21.60;45.10;;;;;;5006488;28;20081;-68
2022/07/16 13:08:17;;;;;;;2.57;0.50;;;21.20;45.50;;;;;;5003398;28;20054;-68